sensor_id;sensor_type;location;lat;lon;timestamp;P1;durP1;ratioP1;P2;durP2;ratioP2
69951;SDS011;60406;48.408;13.392;2022-08-04T00:12:56;6.72;;;5.03;;
69951;SDS011;60406;48.408;13.392;2022-08-04T00:18:04;8.38;;;5.15;;
69951;SDS011;60406;48.408;13.392;2022-08-04T00:23:07;5.65;;;4.55;;
69951;SDS011;60406;48.408;13.392;2022-08-04T00:28:08;6.63;;;5.90;;
69951;SDS011;60406;48.408;13.392;2022-08-04T00:33:09;9.13;;;5.55;;
69951;SDS011;60406;48.408;13.392;2022-08-04T00:38:11;14.90;;;5.80;;
69951;SDS011;60406;48.408;13.392;2022-08-04T00:43:23;6.40;;;4.57;;
69951;SDS011;60406;48.408;13.392;2022-08-04T00:48:40;11.70;;;4.88;;
69951;SDS011;60406;48.408;13.392;2022-08-04T00:54:11;6.78;;;4.97;;
69951;SDS011;60406;48.408;13.392;2022-08-04T00:59:27;6.90;;;5.53;;
69951;SDS011;60406;48.408;13.392;2022-08-04T01:04:47;7.40;;;5.38;;
69951;SDS011;60406;48.408;13.392;2022-08-04T01:09:59;7.75;;;5.97;;
69951;SDS011;60406;48.408;13.392;2022-08-04T01:15:14;8.05;;;5.85;;
69951;SDS011;60406;48.408;13.392;2022-08-04T01:20:24;10.32;;;6.05;;
69951;SDS011;60406;48.408;13.392;2022-08-04T01:30:29;7.03;;;6.05;;
69951;SDS011;60406;48.408;13.392;2022-08-04T01:35:37;8.33;;;6.50;;
69951;SDS011;60406;48.408;13.392;2022-08-04T01:40:44;7.18;;;6.43;;
69951;SDS011;60406;48.408;13.392;2022-08-04T01:45:49;7.90;;;6.70;;
69951;SDS011;60406;48.408;13.392;2022-08-04T01:50:58;10.13;;;6.80;;
69951;SDS011;60406;48.408;13.392;2022-08-04T01:56:02;7.22;;;6.00;;
69951;SDS011;60406;48.408;13.392;2022-08-04T02:01:04;9.38;;;6.68;;
69951;SDS011;60406;48.408;13.392;2022-08-04T02:06:15;8.30;;;7.30;;
69951;SDS011;60406;48.408;13.392;2022-08-04T02:11:36;10.40;;;7.00;;
69951;SDS011;60406;48.408;13.392;2022-08-04T02:21:47;8.38;;;7.57;;
69951;SDS011;60406;48.408;13.392;2022-08-04T02:26:55;7.22;;;6.32;;
69951;SDS011;60406;48.408;13.392;2022-08-04T02:31:59;7.57;;;6.93;;
69951;SDS011;60406;48.408;13.392;2022-08-04T02:37:04;9.90;;;7.68;;
69951;SDS011;60406;48.408;13.392;2022-08-04T02:42:05;8.20;;;7.40;;
69951;SDS011;60406;48.408;13.392;2022-08-04T02:47:05;8.23;;;7.35;;
69951;SDS011;60406;48.408;13.392;2022-08-04T02:52:07;10.20;;;8.15;;
69951;SDS011;60406;48.408;13.392;2022-08-04T02:57:12;15.23;;;8.13;;
69951;SDS011;60406;48.408;13.392;2022-08-04T03:02:14;9.45;;;7.07;;
69951;SDS011;60406;48.408;13.392;2022-08-04T03:50:39;6.37;;;5.77;;
69951;SDS011;60406;48.408;13.392;2022-08-04T03:55:53;7.07;;;6.38;;
69951;SDS011;60406;48.408;13.392;2022-08-04T04:43:30;7.75;;;7.05;;
69951;SDS011;60406;48.408;13.392;2022-08-04T04:48:48;9.90;;;7.03;;
69951;SDS011;60406;48.408;13.392;2022-08-04T04:59:19;9.23;;;6.93;;
69951;SDS011;60406;48.408;13.392;2022-08-04T05:04:29;8.82;;;7.30;;
69951;SDS011;60406;48.408;13.392;2022-08-04T05:15:14;9.77;;;7.57;;
69951;SDS011;60406;48.408;13.392;2022-08-04T05:20:19;13.18;;;7.45;;
69951;SDS011;60406;48.408;13.392;2022-08-04T05:25:32;8.38;;;7.63;;
69951;SDS011;60406;48.408;13.392;2022-08-04T05:30:36;7.90;;;7.10;;
69951;SDS011;60406;48.408;13.392;2022-08-04T05:40:43;10.00;;;6.38;;
69951;SDS011;60406;48.408;13.392;2022-08-04T05:45:44;7.03;;;6.43;;
69951;SDS011;60406;48.408;13.392;2022-08-04T05:50:45;8.77;;;5.88;;
69951;SDS011;60406;48.408;13.392;2022-08-04T05:55:47;9.73;;;6.50;;
69951;SDS011;60406;48.408;13.392;2022-08-04T06:00:48;15.57;;;5.82;;
69951;SDS011;60406;48.408;13.392;2022-08-04T06:05:50;9.07;;;6.05;;
69951;SDS011;60406;48.408;13.392;2022-08-04T06:10:52;9.63;;;6.68;;
69951;SDS011;60406;48.408;13.392;2022-08-04T06:15:53;6.95;;;5.85;;
69951;SDS011;60406;48.408;13.392;2022-08-04T06:20:55;10.20;;;6.07;;
69951;SDS011;60406;48.408;13.392;2022-08-04T06:25:57;7.28;;;5.25;;
69951;SDS011;60406;48.408;13.392;2022-08-04T06:30:59;6.47;;;5.45;;
69951;SDS011;60406;48.408;13.392;2022-08-04T06:36:01;10.00;;;5.55;;
69951;SDS011;60406;48.408;13.392;2022-08-04T06:41:04;7.53;;;6.03;;
69951;SDS011;60406;48.408;13.392;2022-08-04T06:46:05;7.22;;;6.00;;
69951;SDS011;60406;48.408;13.392;2022-08-04T06:51:07;8.02;;;6.07;;
69951;SDS011;60406;48.408;13.392;2022-08-04T06:56:08;7.88;;;5.90;;
69951;SDS011;60406;48.408;13.392;2022-08-04T07:01:10;6.25;;;5.65;;
69951;SDS011;60406;48.408;13.392;2022-08-04T07:06:12;6.25;;;5.65;;
69951;SDS011;60406;48.408;13.392;2022-08-04T07:11:14;11.90;;;5.65;;
69951;SDS011;60406;48.408;13.392;2022-08-04T07:16:15;6.00;;;5.43;;
69951;SDS011;60406;48.408;13.392;2022-08-04T07:21:22;5.75;;;5.25;;
69951;SDS011;60406;48.408;13.392;2022-08-04T07:26:29;6.88;;;4.95;;
69951;SDS011;60406;48.408;13.392;2022-08-04T07:31:30;6.07;;;5.18;;
69951;SDS011;60406;48.408;13.392;2022-08-04T07:36:31;5.85;;;4.88;;
69951;SDS011;60406;48.408;13.392;2022-08-04T07:41:32;5.53;;;5.00;;
69951;SDS011;60406;48.408;13.392;2022-08-04T07:46:33;6.85;;;4.80;;
69951;SDS011;60406;48.408;13.392;2022-08-04T07:51:34;6.63;;;4.90;;
69951;SDS011;60406;48.408;13.392;2022-08-04T07:56:37;7.95;;;4.93;;
69951;SDS011;60406;48.408;13.392;2022-08-04T08:01:39;7.97;;;4.50;;
69951;SDS011;60406;48.408;13.392;2022-08-04T08:06:40;4.75;;;4.35;;
69951;SDS011;60406;48.408;13.392;2022-08-04T08:11:42;6.05;;;4.50;;
69951;SDS011;60406;48.408;13.392;2022-08-04T08:16:44;5.32;;;4.40;;
69951;SDS011;60406;48.408;13.392;2022-08-04T08:21:46;4.85;;;4.35;;
69951;SDS011;60406;48.408;13.392;2022-08-04T08:26:47;5.78;;;4.38;;
69951;SDS011;60406;48.408;13.392;2022-08-04T08:31:48;5.82;;;4.57;;
69951;SDS011;60406;48.408;13.392;2022-08-04T08:36:56;6.82;;;4.53;;
69951;SDS011;60406;48.408;13.392;2022-08-04T08:42:07;6.60;;;4.72;;
69951;SDS011;60406;48.408;13.392;2022-08-04T09:03:37;6.43;;;4.20;;
69951;SDS011;60406;48.408;13.392;2022-08-04T09:14:04;5.20;;;3.70;;
69951;SDS011;60406;48.408;13.392;2022-08-04T09:24:53;5.25;;;3.78;;
69951;SDS011;60406;48.408;13.392;2022-08-04T09:30:09;4.85;;;3.35;;
69951;SDS011;60406;48.408;13.392;2022-08-04T09:35:16;4.40;;;3.10;;
69951;SDS011;60406;48.408;13.392;2022-08-04T09:45:32;5.38;;;3.72;;
69951;SDS011;60406;48.408;13.392;2022-08-04T09:50:49;4.00;;;3.65;;
69951;SDS011;60406;48.408;13.392;2022-08-04T10:01:12;6.22;;;5.00;;
69951;SDS011;60406;48.408;13.392;2022-08-04T10:11:26;4.45;;;2.88;;
69951;SDS011;60406;48.408;13.392;2022-08-04T10:22:20;4.68;;;3.25;;
69951;SDS011;60406;48.408;13.392;2022-08-04T10:32:32;4.60;;;3.08;;
69951;SDS011;60406;48.408;13.392;2022-08-04T10:42:46;5.00;;;2.75;;
69951;SDS011;60406;48.408;13.392;2022-08-04T10:48:00;3.20;;;2.90;;
69951;SDS011;60406;48.408;13.392;2022-08-04T10:53:16;9.43;;;3.33;;
69951;SDS011;60406;48.408;13.392;2022-08-04T10:58:19;6.03;;;3.33;;
69951;SDS011;60406;48.408;13.392;2022-08-04T11:08:39;4.95;;;2.80;;
69951;SDS011;60406;48.408;13.392;2022-08-04T11:13:53;3.75;;;3.00;;
69951;SDS011;60406;48.408;13.392;2022-08-04T11:30:00;5.45;;;3.17;;
69951;SDS011;60406;48.408;13.392;2022-08-04T11:35:04;3.53;;;2.83;;
69951;SDS011;60406;48.408;13.392;2022-08-04T11:40:29;3.60;;;2.95;;
69951;SDS011;60406;48.408;13.392;2022-08-04T11:46:13;3.92;;;2.90;;
69951;SDS011;60406;48.408;13.392;2022-08-04T11:50:54;4.88;;;2.85;;
69951;SDS011;60406;48.408;13.392;2022-08-04T11:56:01;3.25;;;2.38;;
69951;SDS011;60406;48.408;13.392;2022-08-04T12:01:08;2.67;;;2.10;;
69951;SDS011;60406;48.408;13.392;2022-08-04T12:06:46;3.72;;;2.05;;
69951;SDS011;60406;48.408;13.392;2022-08-04T12:17:14;2.03;;;1.83;;
69951;SDS011;60406;48.408;13.392;2022-08-04T12:22:22;2.13;;;1.87;;
69951;SDS011;60406;48.408;13.392;2022-08-04T12:27:26;3.15;;;1.95;;
69951;SDS011;60406;48.408;13.392;2022-08-04T12:32:34;5.45;;;1.85;;
69951;SDS011;60406;48.408;13.392;2022-08-04T12:37:49;2.15;;;1.90;;
69951;SDS011;60406;48.408;13.392;2022-08-04T12:48:23;2.63;;;1.70;;
69951;SDS011;60406;48.408;13.392;2022-08-04T12:53:31;2.72;;;1.60;;
69951;SDS011;60406;48.408;13.392;2022-08-04T12:58:36;5.80;;;2.13;;
69951;SDS011;60406;48.408;13.392;2022-08-04T13:03:41;5.13;;;1.70;;
69951;SDS011;60406;48.408;13.392;2022-08-04T13:08:45;3.50;;;1.90;;
69951;SDS011;60406;48.408;13.392;2022-08-04T13:13:46;5.13;;;1.58;;
69951;SDS011;60406;48.408;13.392;2022-08-04T13:18:50;2.35;;;1.70;;
69951;SDS011;60406;48.408;13.392;2022-08-04T13:23:52;2.95;;;1.80;;
69951;SDS011;60406;48.408;13.392;2022-08-04T13:28:57;2.17;;;1.73;;
69951;SDS011;60406;48.408;13.392;2022-08-04T13:34:04;4.10;;;1.27;;
69951;SDS011;60406;48.408;13.392;2022-08-04T13:39:16;1.80;;;1.65;;
69951;SDS011;60406;48.408;13.392;2022-08-04T13:44:19;4.35;;;1.52;;
69951;SDS011;60406;48.408;13.392;2022-08-04T13:49:21;2.75;;;1.75;;
69951;SDS011;60406;48.408;13.392;2022-08-04T13:54:22;3.40;;;1.70;;
69951;SDS011;60406;48.408;13.392;2022-08-04T13:59:24;1.75;;;1.38;;
69951;SDS011;60406;48.408;13.392;2022-08-04T14:04:26;4.82;;;1.45;;
69951;SDS011;60406;48.408;13.392;2022-08-04T14:09:28;3.03;;;1.40;;
69951;SDS011;60406;48.408;13.392;2022-08-04T14:14:32;1.50;;;1.30;;
69951;SDS011;60406;48.408;13.392;2022-08-04T14:24:58;3.47;;;1.75;;
69951;SDS011;60406;48.408;13.392;2022-08-04T14:29:59;3.92;;;1.58;;
69951;SDS011;60406;48.408;13.392;2022-08-04T14:35:00;2.83;;;1.52;;
69951;SDS011;60406;48.408;13.392;2022-08-04T14:40:12;2.42;;;1.60;;
69951;SDS011;60406;48.408;13.392;2022-08-04T14:45:26;3.78;;;1.70;;
69951;SDS011;60406;48.408;13.392;2022-08-04T14:50:32;1.98;;;1.42;;
69951;SDS011;60406;48.408;13.392;2022-08-04T14:55:43;2.70;;;1.40;;
69951;SDS011;60406;48.408;13.392;2022-08-04T15:00:45;1.70;;;1.60;;
69951;SDS011;60406;48.408;13.392;2022-08-04T15:05:46;2.72;;;1.67;;
69951;SDS011;60406;48.408;13.392;2022-08-04T15:10:48;2.75;;;1.73;;
69951;SDS011;60406;48.408;13.392;2022-08-04T15:15:49;1.42;;;1.33;;
69951;SDS011;60406;48.408;13.392;2022-08-04T15:20:50;1.48;;;1.38;;
69951;SDS011;60406;48.408;13.392;2022-08-04T15:25:52;1.55;;;1.42;;
69951;SDS011;60406;48.408;13.392;2022-08-04T15:30:54;2.00;;;1.55;;
69951;SDS011;60406;48.408;13.392;2022-08-04T15:36:08;3.97;;;1.40;;
69951;SDS011;60406;48.408;13.392;2022-08-04T15:41:19;4.95;;;1.70;;
69951;SDS011;60406;48.408;13.392;2022-08-04T15:51:38;6.45;;;2.22;;
69951;SDS011;60406;48.408;13.392;2022-08-04T15:56:43;4.00;;;1.70;;
69951;SDS011;60406;48.408;13.392;2022-08-04T16:01:45;1.40;;;1.30;;
69951;SDS011;60406;48.408;13.392;2022-08-04T16:06:47;3.63;;;1.45;;
69951;SDS011;60406;48.408;13.392;2022-08-04T16:11:48;3.72;;;1.30;;
69951;SDS011;60406;48.408;13.392;2022-08-04T16:16:49;3.65;;;1.35;;
69951;SDS011;60406;48.408;13.392;2022-08-04T16:26:58;6.13;;;1.50;;
69951;SDS011;60406;48.408;13.392;2022-08-04T16:37:16;3.80;;;1.38;;
69951;SDS011;60406;48.408;13.392;2022-08-04T16:57:48;1.85;;;1.48;;
69951;SDS011;60406;48.408;13.392;2022-08-04T17:02:50;2.25;;;1.10;;
69951;SDS011;60406;48.408;13.392;2022-08-04T17:07:51;3.80;;;1.42;;
69951;SDS011;60406;48.408;13.392;2022-08-04T17:12:53;4.43;;;1.50;;
69951;SDS011;60406;48.408;13.392;2022-08-04T17:28:30;1.92;;;1.67;;
69951;SDS011;60406;48.408;13.392;2022-08-04T17:33:31;3.60;;;1.70;;
69951;SDS011;60406;48.408;13.392;2022-08-04T17:38:45;3.50;;;2.08;;
69951;SDS011;60406;48.408;13.392;2022-08-04T17:43:48;3.75;;;1.80;;
69951;SDS011;60406;48.408;13.392;2022-08-04T17:54:12;3.42;;;2.00;;
69951;SDS011;60406;48.408;13.392;2022-08-04T18:04:34;5.32;;;2.65;;
69951;SDS011;60406;48.408;13.392;2022-08-04T18:14:49;3.05;;;2.30;;
69951;SDS011;60406;48.408;13.392;2022-08-04T18:19:52;2.33;;;2.13;;
69951;SDS011;60406;48.408;13.392;2022-08-04T18:24:53;7.45;;;2.45;;
69951;SDS011;60406;48.408;13.392;2022-08-04T18:29:54;5.72;;;2.88;;
69951;SDS011;60406;48.408;13.392;2022-08-04T18:34:55;2.47;;;2.28;;
69951;SDS011;60406;48.408;13.392;2022-08-04T18:39:55;8.82;;;3.20;;
69951;SDS011;60406;48.408;13.392;2022-08-04T18:44:56;7.47;;;4.53;;
69951;SDS011;60406;48.408;13.392;2022-08-04T18:49:57;3.72;;;3.03;;
69951;SDS011;60406;48.408;13.392;2022-08-04T18:54:58;8.63;;;3.40;;
69951;SDS011;60406;48.408;13.392;2022-08-04T18:59:59;3.65;;;3.35;;
69951;SDS011;60406;48.408;13.392;2022-08-04T19:05:00;13.57;;;3.20;;
69951;SDS011;60406;48.408;13.392;2022-08-04T19:10:01;4.60;;;3.47;;
69951;SDS011;60406;48.408;13.392;2022-08-04T19:15:02;4.47;;;3.60;;
69951;SDS011;60406;48.408;13.392;2022-08-04T19:20:03;3.20;;;2.90;;
69951;SDS011;60406;48.408;13.392;2022-08-04T19:25:04;3.80;;;2.95;;
69951;SDS011;60406;48.408;13.392;2022-08-04T19:30:06;4.88;;;3.50;;
69951;SDS011;60406;48.408;13.392;2022-08-04T19:35:07;3.85;;;3.47;;
69951;SDS011;60406;48.408;13.392;2022-08-04T19:40:08;7.60;;;3.70;;
69951;SDS011;60406;48.408;13.392;2022-08-04T19:45:09;5.22;;;3.10;;
69951;SDS011;60406;48.408;13.392;2022-08-04T19:50:11;6.43;;;3.47;;
69951;SDS011;60406;48.408;13.392;2022-08-04T19:55:11;5.22;;;3.47;;
69951;SDS011;60406;48.408;13.392;2022-08-04T20:00:13;7.90;;;3.80;;
69951;SDS011;60406;48.408;13.392;2022-08-04T20:05:14;4.53;;;3.67;;
69951;SDS011;60406;48.408;13.392;2022-08-04T20:10:15;8.98;;;4.10;;
69951;SDS011;60406;48.408;13.392;2022-08-04T20:15:16;4.50;;;4.05;;
69951;SDS011;60406;48.408;13.392;2022-08-04T20:20:17;11.27;;;4.18;;
69951;SDS011;60406;48.408;13.392;2022-08-04T20:25:18;6.88;;;4.18;;
69951;SDS011;60406;48.408;13.392;2022-08-04T20:30:19;4.75;;;4.00;;
69951;SDS011;60406;48.408;13.392;2022-08-04T20:35:20;5.13;;;4.05;;
69951;SDS011;60406;48.408;13.392;2022-08-04T20:40:21;4.38;;;3.97;;
69951;SDS011;60406;48.408;13.392;2022-08-04T20:45:22;6.15;;;3.90;;
69951;SDS011;60406;48.408;13.392;2022-08-04T20:50:22;5.13;;;3.90;;
69951;SDS011;60406;48.408;13.392;2022-08-04T20:55:23;5.22;;;3.50;;
69951;SDS011;60406;48.408;13.392;2022-08-04T21:00:25;4.05;;;3.75;;
69951;SDS011;60406;48.408;13.392;2022-08-04T21:05:26;6.35;;;4.28;;
69951;SDS011;60406;48.408;13.392;2022-08-04T21:10:27;8.20;;;4.68;;
69951;SDS011;60406;48.408;13.392;2022-08-04T21:15:28;9.70;;;4.35;;
69951;SDS011;60406;48.408;13.392;2022-08-04T21:20:29;5.07;;;4.57;;
69951;SDS011;60406;48.408;13.392;2022-08-04T21:25:31;5.03;;;4.45;;
69951;SDS011;60406;48.408;13.392;2022-08-04T21:30:32;7.10;;;4.30;;
69951;SDS011;60406;48.408;13.392;2022-08-04T21:35:33;4.90;;;4.47;;
69951;SDS011;60406;48.408;13.392;2022-08-04T21:40:34;10.48;;;5.30;;
69951;SDS011;60406;48.408;13.392;2022-08-04T21:45:35;9.45;;;4.38;;
69951;SDS011;60406;48.408;13.392;2022-08-04T21:50:36;4.68;;;4.30;;
69951;SDS011;60406;48.408;13.392;2022-08-04T21:55:37;4.53;;;4.13;;
69951;SDS011;60406;48.408;13.392;2022-08-04T22:00:38;5.88;;;4.47;;
69951;SDS011;60406;48.408;13.392;2022-08-04T22:05:38;7.15;;;4.43;;
69951;SDS011;60406;48.408;13.392;2022-08-04T22:10:39;4.65;;;4.10;;
69951;SDS011;60406;48.408;13.392;2022-08-04T22:15:40;8.27;;;4.80;;
69951;SDS011;60406;48.408;13.392;2022-08-04T22:20:41;5.60;;;4.13;;
69951;SDS011;60406;48.408;13.392;2022-08-04T22:25:42;6.15;;;4.32;;
69951;SDS011;60406;48.408;13.392;2022-08-04T22:30:43;6.10;;;4.32;;
69951;SDS011;60406;48.408;13.392;2022-08-04T22:35:44;7.22;;;4.60;;
69951;SDS011;60406;48.408;13.392;2022-08-04T22:40:44;7.35;;;4.13;;
69951;SDS011;60406;48.408;13.392;2022-08-04T22:45:45;10.05;;;4.85;;
69951;SDS011;60406;48.408;13.392;2022-08-04T22:50:46;5.88;;;4.35;;
69951;SDS011;60406;48.408;13.392;2022-08-04T22:55:47;4.57;;;4.18;;
69951;SDS011;60406;48.408;13.392;2022-08-04T23:00:48;4.97;;;4.55;;
69951;SDS011;60406;48.408;13.392;2022-08-04T23:05:49;4.93;;;4.50;;
69951;SDS011;60406;48.408;13.392;2022-08-04T23:10:50;5.30;;;4.80;;
69951;SDS011;60406;48.408;13.392;2022-08-04T23:15:51;5.82;;;4.90;;
69951;SDS011;60406;48.408;13.392;2022-08-04T23:20:51;5.85;;;4.93;;
69951;SDS011;60406;48.408;13.392;2022-08-04T23:25:52;5.57;;;5.05;;
69951;SDS011;60406;48.408;13.392;2022-08-04T23:30:54;8.20;;;4.97;;
69951;SDS011;60406;48.408;13.392;2022-08-04T23:35:55;8.88;;;5.32;;
69951;SDS011;60406;48.408;13.392;2022-08-04T23:41:17;12.60;;;5.65;;
69951;SDS011;60406;48.408;13.392;2022-08-04T23:46:17;6.03;;;5.43;;
69951;SDS011;60406;48.408;13.392;2022-08-04T23:51:18;6.25;;;5.50;;
69951;SDS011;60406;48.408;13.392;2022-08-04T23:56:19;6.65;;;5.32;;
